sensor_id;sensor_type;location;lat;lon;timestamp;P1;durP1;ratioP1;P2;durP2;ratioP2
14994;SDS011;7593;49.006;8.372;2023-12-07T00:01:33;16.20;;;10.70;;
14994;SDS011;7593;49.006;8.372;2023-12-07T00:04:00;13.37;;;10.47;;
14994;SDS011;7593;49.006;8.372;2023-12-07T00:06:27;12.47;;;9.87;;
14994;SDS011;7593;49.006;8.372;2023-12-07T00:08:55;12.17;;;10.17;;
14994;SDS011;7593;49.006;8.372;2023-12-07T00:11:23;12.43;;;10.17;;
14994;SDS011;7593;49.006;8.372;2023-12-07T00:13:50;11.40;;;9.67;;
14994;SDS011;7593;49.006;8.372;2023-12-07T00:16:17;12.03;;;9.60;;
14994;SDS011;7593;49.006;8.372;2023-12-07T00:18:44;10.60;;;9.20;;
14994;SDS011;7593;49.006;8.372;2023-12-07T00:21:10;11.30;;;9.10;;
14994;SDS011;7593;49.006;8.372;2023-12-07T00:23:37;12.50;;;9.37;;
14994;SDS011;7593;49.006;8.372;2023-12-07T00:26:05;12.97;;;9.00;;
14994;SDS011;7593;49.006;8.372;2023-12-07T00:28:32;11.97;;;8.93;;
14994;SDS011;7593;49.006;8.372;2023-12-07T00:30:59;10.73;;;8.90;;
14994;SDS011;7593;49.006;8.372;2023-12-07T00:33:26;10.73;;;8.90;;
14994;SDS011;7593;49.006;8.372;2023-12-07T00:35:53;11.13;;;9.17;;
14994;SDS011;7593;49.006;8.372;2023-12-07T00:38:20;12.37;;;9.10;;
14994;SDS011;7593;49.006;8.372;2023-12-07T00:40:47;11.13;;;9.10;;
14994;SDS011;7593;49.006;8.372;2023-12-07T00:43:15;9.60;;;7.97;;
14994;SDS011;7593;49.006;8.372;2023-12-07T00:45:43;10.50;;;8.13;;
14994;SDS011;7593;49.006;8.372;2023-12-07T00:48:10;11.10;;;8.70;;
14994;SDS011;7593;49.006;8.372;2023-12-07T00:50:37;11.07;;;8.17;;
14994;SDS011;7593;49.006;8.372;2023-12-07T00:53:03;12.23;;;8.33;;
14994;SDS011;7593;49.006;8.372;2023-12-07T00:55:30;10.43;;;8.57;;
14994;SDS011;7593;49.006;8.372;2023-12-07T00:57:57;12.43;;;8.17;;
14994;SDS011;7593;49.006;8.372;2023-12-07T01:00:26;9.30;;;8.30;;
14994;SDS011;7593;49.006;8.372;2023-12-07T01:02:53;11.90;;;8.10;;
14994;SDS011;7593;49.006;8.372;2023-12-07T01:05:20;9.93;;;8.00;;
14994;SDS011;7593;49.006;8.372;2023-12-07T01:07:47;10.50;;;8.43;;
14994;SDS011;7593;49.006;8.372;2023-12-07T01:10:14;9.97;;;7.97;;
14994;SDS011;7593;49.006;8.372;2023-12-07T01:12:40;8.73;;;7.73;;
14994;SDS011;7593;49.006;8.372;2023-12-07T01:15:07;9.03;;;8.10;;
14994;SDS011;7593;49.006;8.372;2023-12-07T01:17:36;12.00;;;8.40;;
14994;SDS011;7593;49.006;8.372;2023-12-07T01:20:03;11.60;;;8.10;;
14994;SDS011;7593;49.006;8.372;2023-12-07T01:22:36;10.83;;;8.37;;
14994;SDS011;7593;49.006;8.372;2023-12-07T01:25:04;9.20;;;8.23;;
14994;SDS011;7593;49.006;8.372;2023-12-07T01:27:32;10.33;;;8.23;;
14994;SDS011;7593;49.006;8.372;2023-12-07T01:29:59;11.77;;;8.40;;
14994;SDS011;7593;49.006;8.372;2023-12-07T01:32:25;10.77;;;8.30;;
14994;SDS011;7593;49.006;8.372;2023-12-07T01:34:53;11.17;;;8.10;;
14994;SDS011;7593;49.006;8.372;2023-12-07T01:37:20;10.43;;;8.80;;
14994;SDS011;7593;49.006;8.372;2023-12-07T01:39:47;9.73;;;7.93;;
14994;SDS011;7593;49.006;8.372;2023-12-07T01:42:14;12.23;;;8.67;;
14994;SDS011;7593;49.006;8.372;2023-12-07T01:44:41;10.47;;;8.20;;
14994;SDS011;7593;49.006;8.372;2023-12-07T01:47:07;11.43;;;8.67;;
14994;SDS011;7593;49.006;8.372;2023-12-07T01:49:35;10.43;;;8.80;;
14994;SDS011;7593;49.006;8.372;2023-12-07T01:52:04;10.83;;;9.00;;
14994;SDS011;7593;49.006;8.372;2023-12-07T01:54:32;11.77;;;9.00;;
14994;SDS011;7593;49.006;8.372;2023-12-07T01:56:59;11.83;;;9.37;;
14994;SDS011;7593;49.006;8.372;2023-12-07T01:59:26;11.00;;;8.50;;
14994;SDS011;7593;49.006;8.372;2023-12-07T02:01:52;11.33;;;8.90;;
14994;SDS011;7593;49.006;8.372;2023-12-07T02:04:19;10.50;;;9.00;;
14994;SDS011;7593;49.006;8.372;2023-12-07T02:06:46;15.30;;;8.83;;
14994;SDS011;7593;49.006;8.372;2023-12-07T02:09:14;11.63;;;8.77;;
14994;SDS011;7593;49.006;8.372;2023-12-07T02:11:41;10.37;;;8.20;;
14994;SDS011;7593;49.006;8.372;2023-12-07T02:14:08;10.77;;;9.37;;
14994;SDS011;7593;49.006;8.372;2023-12-07T02:16:38;11.37;;;9.17;;
14994;SDS011;7593;49.006;8.372;2023-12-07T02:19:17;11.60;;;9.47;;
14994;SDS011;7593;49.006;8.372;2023-12-07T02:21:55;11.07;;;9.03;;
14994;SDS011;7593;49.006;8.372;2023-12-07T02:24:27;11.60;;;9.47;;
14994;SDS011;7593;49.006;8.372;2023-12-07T02:26:58;11.47;;;9.37;;
14994;SDS011;7593;49.006;8.372;2023-12-07T02:29:24;13.37;;;9.50;;
14994;SDS011;7593;49.006;8.372;2023-12-07T02:31:51;12.03;;;9.70;;
14994;SDS011;7593;49.006;8.372;2023-12-07T02:34:18;11.17;;;9.63;;
14994;SDS011;7593;49.006;8.372;2023-12-07T02:36:45;12.93;;;10.23;;
14994;SDS011;7593;49.006;8.372;2023-12-07T02:39:14;13.43;;;11.00;;
14994;SDS011;7593;49.006;8.372;2023-12-07T02:41:41;14.77;;;9.93;;
14994;SDS011;7593;49.006;8.372;2023-12-07T02:44:13;11.77;;;10.33;;
14994;SDS011;7593;49.006;8.372;2023-12-07T02:46:40;13.57;;;10.50;;
14994;SDS011;7593;49.006;8.372;2023-12-07T02:49:07;12.03;;;10.50;;
14994;SDS011;7593;49.006;8.372;2023-12-07T02:51:33;15.33;;;10.93;;
14994;SDS011;7593;49.006;8.372;2023-12-07T02:54:00;15.13;;;11.87;;
14994;SDS011;7593;49.006;8.372;2023-12-07T02:56:27;17.20;;;11.67;;
14994;SDS011;7593;49.006;8.372;2023-12-07T02:58:54;14.10;;;11.60;;
14994;SDS011;7593;49.006;8.372;2023-12-07T03:01:22;17.67;;;12.03;;
14994;SDS011;7593;49.006;8.372;2023-12-07T03:03:48;16.00;;;11.00;;
14994;SDS011;7593;49.006;8.372;2023-12-07T03:06:15;16.73;;;12.30;;
14994;SDS011;7593;49.006;8.372;2023-12-07T03:08:44;17.47;;;11.77;;
14994;SDS011;7593;49.006;8.372;2023-12-07T03:11:11;17.27;;;11.33;;
14994;SDS011;7593;49.006;8.372;2023-12-07T03:13:38;13.97;;;10.87;;
14994;SDS011;7593;49.006;8.372;2023-12-07T03:16:07;13.27;;;11.10;;
14994;SDS011;7593;49.006;8.372;2023-12-07T03:18:36;16.40;;;10.93;;
14994;SDS011;7593;49.006;8.372;2023-12-07T03:21:03;15.97;;;12.43;;
14994;SDS011;7593;49.006;8.372;2023-12-07T03:23:30;15.07;;;12.30;;
14994;SDS011;7593;49.006;8.372;2023-12-07T03:25:57;18.43;;;13.03;;
14994;SDS011;7593;49.006;8.372;2023-12-07T03:28:23;14.53;;;12.23;;
14994;SDS011;7593;49.006;8.372;2023-12-07T03:30:50;15.97;;;11.73;;
14994;SDS011;7593;49.006;8.372;2023-12-07T03:33:17;16.87;;;12.97;;
14994;SDS011;7593;49.006;8.372;2023-12-07T03:35:45;14.83;;;12.17;;
14994;SDS011;7593;49.006;8.372;2023-12-07T03:38:12;14.20;;;12.27;;
14994;SDS011;7593;49.006;8.372;2023-12-07T03:40:38;15.33;;;12.87;;
14994;SDS011;7593;49.006;8.372;2023-12-07T03:43:05;21.77;;;13.13;;
14994;SDS011;7593;49.006;8.372;2023-12-07T03:45:32;17.23;;;13.27;;
14994;SDS011;7593;49.006;8.372;2023-12-07T03:47:59;18.53;;;14.37;;
14994;SDS011;7593;49.006;8.372;2023-12-07T03:50:25;19.17;;;15.13;;
14994;SDS011;7593;49.006;8.372;2023-12-07T03:52:53;15.37;;;13.67;;
14994;SDS011;7593;49.006;8.372;2023-12-07T03:55:20;16.23;;;13.90;;
14994;SDS011;7593;49.006;8.372;2023-12-07T03:57:47;16.87;;;12.80;;
14994;SDS011;7593;49.006;8.372;2023-12-07T04:00:14;15.50;;;12.73;;
14994;SDS011;7593;49.006;8.372;2023-12-07T04:02:41;15.53;;;12.70;;
14994;SDS011;7593;49.006;8.372;2023-12-07T04:05:08;16.17;;;12.60;;
14994;SDS011;7593;49.006;8.372;2023-12-07T04:07:34;17.20;;;12.93;;
14994;SDS011;7593;49.006;8.372;2023-12-07T04:10:03;18.17;;;13.00;;
14994;SDS011;7593;49.006;8.372;2023-12-07T04:12:31;16.60;;;13.13;;
14994;SDS011;7593;49.006;8.372;2023-12-07T04:14:58;17.50;;;13.40;;
14994;SDS011;7593;49.006;8.372;2023-12-07T04:17:25;19.10;;;14.63;;
14994;SDS011;7593;49.006;8.372;2023-12-07T04:19:52;16.63;;;13.57;;
14994;SDS011;7593;49.006;8.372;2023-12-07T04:22:18;17.27;;;14.10;;
14994;SDS011;7593;49.006;8.372;2023-12-07T04:24:45;18.03;;;13.20;;
14994;SDS011;7593;49.006;8.372;2023-12-07T04:27:13;18.97;;;14.63;;
14994;SDS011;7593;49.006;8.372;2023-12-07T04:29:40;20.67;;;14.37;;
14994;SDS011;7593;49.006;8.372;2023-12-07T04:32:07;17.33;;;14.00;;
14994;SDS011;7593;49.006;8.372;2023-12-07T04:34:34;18.40;;;13.93;;
14994;SDS011;7593;49.006;8.372;2023-12-07T04:37:01;17.57;;;14.77;;
14994;SDS011;7593;49.006;8.372;2023-12-07T04:39:28;19.87;;;15.37;;
14994;SDS011;7593;49.006;8.372;2023-12-07T04:41:54;18.77;;;14.07;;
14994;SDS011;7593;49.006;8.372;2023-12-07T04:44:22;19.27;;;14.97;;
14994;SDS011;7593;49.006;8.372;2023-12-07T04:46:50;21.57;;;15.20;;
14994;SDS011;7593;49.006;8.372;2023-12-07T04:49:17;19.27;;;14.80;;
14994;SDS011;7593;49.006;8.372;2023-12-07T04:51:44;18.60;;;14.10;;
14994;SDS011;7593;49.006;8.372;2023-12-07T04:54:11;22.50;;;14.80;;
14994;SDS011;7593;49.006;8.372;2023-12-07T04:56:39;18.77;;;15.13;;
14994;SDS011;7593;49.006;8.372;2023-12-07T04:59:06;19.70;;;14.63;;
14994;SDS011;7593;49.006;8.372;2023-12-07T05:01:34;19.90;;;15.20;;
14994;SDS011;7593;49.006;8.372;2023-12-07T05:04:02;18.57;;;14.47;;
14994;SDS011;7593;49.006;8.372;2023-12-07T05:06:29;18.30;;;14.27;;
14994;SDS011;7593;49.006;8.372;2023-12-07T05:08:56;17.97;;;14.00;;
14994;SDS011;7593;49.006;8.372;2023-12-07T05:11:23;19.90;;;13.40;;
14994;SDS011;7593;49.006;8.372;2023-12-07T05:13:50;20.13;;;13.10;;
14994;SDS011;7593;49.006;8.372;2023-12-07T05:16:17;16.40;;;13.17;;
14994;SDS011;7593;49.006;8.372;2023-12-07T05:18:45;18.83;;;13.90;;
14994;SDS011;7593;49.006;8.372;2023-12-07T05:21:11;20.00;;;14.20;;
14994;SDS011;7593;49.006;8.372;2023-12-07T05:23:38;19.50;;;14.37;;
14994;SDS011;7593;49.006;8.372;2023-12-07T05:26:05;17.50;;;13.97;;
14994;SDS011;7593;49.006;8.372;2023-12-07T05:28:33;21.17;;;14.00;;
14994;SDS011;7593;49.006;8.372;2023-12-07T05:30:59;17.60;;;13.50;;
14994;SDS011;7593;49.006;8.372;2023-12-07T05:33:26;18.13;;;13.67;;
14994;SDS011;7593;49.006;8.372;2023-12-07T05:35:54;18.10;;;14.20;;
14994;SDS011;7593;49.006;8.372;2023-12-07T05:38:21;17.47;;;13.27;;
14994;SDS011;7593;49.006;8.372;2023-12-07T05:40:48;17.40;;;13.07;;
14994;SDS011;7593;49.006;8.372;2023-12-07T05:43:14;17.30;;;12.80;;
14994;SDS011;7593;49.006;8.372;2023-12-07T05:45:41;23.13;;;13.07;;
14994;SDS011;7593;49.006;8.372;2023-12-07T05:48:08;22.37;;;13.13;;
14994;SDS011;7593;49.006;8.372;2023-12-07T05:50:36;17.63;;;12.63;;
14994;SDS011;7593;49.006;8.372;2023-12-07T05:53:05;17.33;;;12.43;;
14994;SDS011;7593;49.006;8.372;2023-12-07T05:55:32;14.60;;;11.53;;
14994;SDS011;7593;49.006;8.372;2023-12-07T05:57:59;18.87;;;12.60;;
14994;SDS011;7593;49.006;8.372;2023-12-07T06:00:25;16.83;;;11.67;;
14994;SDS011;7593;49.006;8.372;2023-12-07T06:02:52;18.87;;;12.07;;
14994;SDS011;7593;49.006;8.372;2023-12-07T06:05:19;15.50;;;12.00;;
14994;SDS011;7593;49.006;8.372;2023-12-07T06:07:46;14.23;;;10.30;;
14994;SDS011;7593;49.006;8.372;2023-12-07T06:10:14;15.03;;;10.73;;
14994;SDS011;7593;49.006;8.372;2023-12-07T06:12:41;13.83;;;10.73;;
14994;SDS011;7593;49.006;8.372;2023-12-07T06:15:08;17.87;;;11.23;;
14994;SDS011;7593;49.006;8.372;2023-12-07T06:17:36;15.27;;;10.20;;
14994;SDS011;7593;49.006;8.372;2023-12-07T06:20:10;14.91;;;10.76;;
14994;SDS011;7593;49.006;8.372;2023-12-07T06:22:37;17.73;;;12.77;;
14994;SDS011;7593;49.006;8.372;2023-12-07T06:25:04;17.50;;;13.80;;
14994;SDS011;7593;49.006;8.372;2023-12-07T06:27:34;20.53;;;12.77;;
14994;SDS011;7593;49.006;8.372;2023-12-07T06:30:01;18.10;;;11.80;;
14994;SDS011;7593;49.006;8.372;2023-12-07T06:32:30;18.17;;;11.90;;
14994;SDS011;7593;49.006;8.372;2023-12-07T06:34:57;16.23;;;12.70;;
14994;SDS011;7593;49.006;8.372;2023-12-07T06:37:24;21.80;;;14.17;;
14994;SDS011;7593;49.006;8.372;2023-12-07T06:39:51;17.43;;;13.03;;
14994;SDS011;7593;49.006;8.372;2023-12-07T06:42:18;24.30;;;18.83;;
14994;SDS011;7593;49.006;8.372;2023-12-07T06:44:47;18.83;;;13.67;;
14994;SDS011;7593;49.006;8.372;2023-12-07T06:47:14;17.50;;;13.90;;
14994;SDS011;7593;49.006;8.372;2023-12-07T06:49:41;18.40;;;12.13;;
14994;SDS011;7593;49.006;8.372;2023-12-07T06:52:08;18.53;;;12.80;;
14994;SDS011;7593;49.006;8.372;2023-12-07T06:54:36;18.23;;;12.53;;
14994;SDS011;7593;49.006;8.372;2023-12-07T06:57:03;16.93;;;12.03;;
14994;SDS011;7593;49.006;8.372;2023-12-07T06:59:31;14.77;;;11.13;;
14994;SDS011;7593;49.006;8.372;2023-12-07T07:02:00;14.57;;;11.33;;
14994;SDS011;7593;49.006;8.372;2023-12-07T07:04:27;15.53;;;11.00;;
14994;SDS011;7593;49.006;8.372;2023-12-07T07:06:55;18.57;;;11.63;;
14994;SDS011;7593;49.006;8.372;2023-12-07T07:09:22;13.57;;;11.13;;
14994;SDS011;7593;49.006;8.372;2023-12-07T07:11:50;15.10;;;10.33;;
14994;SDS011;7593;49.006;8.372;2023-12-07T07:14:18;13.13;;;10.77;;
14994;SDS011;7593;49.006;8.372;2023-12-07T07:16:45;18.70;;;10.63;;
14994;SDS011;7593;49.006;8.372;2023-12-07T07:19:13;15.17;;;10.40;;
14994;SDS011;7593;49.006;8.372;2023-12-07T07:21:41;18.87;;;11.20;;
14994;SDS011;7593;49.006;8.372;2023-12-07T07:24:08;13.37;;;11.17;;
14994;SDS011;7593;49.006;8.372;2023-12-07T07:26:35;17.87;;;11.77;;
14994;SDS011;7593;49.006;8.372;2023-12-07T07:29:02;15.30;;;11.60;;
14994;SDS011;7593;49.006;8.372;2023-12-07T07:31:29;24.23;;;13.73;;
14994;SDS011;7593;49.006;8.372;2023-12-07T07:33:56;17.50;;;12.13;;
14994;SDS011;7593;49.006;8.372;2023-12-07T07:36:24;16.57;;;11.90;;
14994;SDS011;7593;49.006;8.372;2023-12-07T07:38:50;28.87;;;12.33;;
14994;SDS011;7593;49.006;8.372;2023-12-07T07:41:17;15.50;;;11.17;;
14994;SDS011;7593;49.006;8.372;2023-12-07T07:43:44;19.57;;;12.53;;
14994;SDS011;7593;49.006;8.372;2023-12-07T07:46:11;15.03;;;11.77;;
14994;SDS011;7593;49.006;8.372;2023-12-07T07:48:37;16.40;;;12.13;;
14994;SDS011;7593;49.006;8.372;2023-12-07T07:51:04;17.13;;;12.10;;
14994;SDS011;7593;49.006;8.372;2023-12-07T07:53:32;19.23;;;12.70;;
14994;SDS011;7593;49.006;8.372;2023-12-07T07:55:59;16.77;;;12.50;;
14994;SDS011;7593;49.006;8.372;2023-12-07T07:58:26;19.00;;;12.33;;
14994;SDS011;7593;49.006;8.372;2023-12-07T08:00:53;17.10;;;12.70;;
14994;SDS011;7593;49.006;8.372;2023-12-07T08:03:19;22.80;;;13.23;;
14994;SDS011;7593;49.006;8.372;2023-12-07T08:05:46;26.73;;;13.73;;
14994;SDS011;7593;49.006;8.372;2023-12-07T08:08:13;15.77;;;12.13;;
14994;SDS011;7593;49.006;8.372;2023-12-07T08:10:41;15.23;;;12.67;;
14994;SDS011;7593;49.006;8.372;2023-12-07T08:13:08;16.27;;;12.90;;
14994;SDS011;7593;49.006;8.372;2023-12-07T08:15:34;17.03;;;11.93;;
14994;SDS011;7593;49.006;8.372;2023-12-07T08:18:01;17.07;;;12.13;;
14994;SDS011;7593;49.006;8.372;2023-12-07T08:20:28;19.30;;;13.40;;
14994;SDS011;7593;49.006;8.372;2023-12-07T08:22:55;19.40;;;12.57;;
14994;SDS011;7593;49.006;8.372;2023-12-07T08:25:22;15.53;;;12.17;;
14994;SDS011;7593;49.006;8.372;2023-12-07T08:27:50;16.90;;;12.23;;
14994;SDS011;7593;49.006;8.372;2023-12-07T08:30:16;19.63;;;12.87;;
14994;SDS011;7593;49.006;8.372;2023-12-07T08:32:43;16.20;;;12.70;;
14994;SDS011;7593;49.006;8.372;2023-12-07T08:35:10;17.93;;;12.70;;
14994;SDS011;7593;49.006;8.372;2023-12-07T08:37:37;17.83;;;13.10;;
14994;SDS011;7593;49.006;8.372;2023-12-07T08:40:05;20.57;;;13.63;;
14994;SDS011;7593;49.006;8.372;2023-12-07T08:42:31;19.07;;;13.97;;
14994;SDS011;7593;49.006;8.372;2023-12-07T08:44:59;22.27;;;13.97;;
14994;SDS011;7593;49.006;8.372;2023-12-07T08:47:26;18.73;;;12.67;;
14994;SDS011;7593;49.006;8.372;2023-12-07T08:49:55;14.63;;;11.80;;
14994;SDS011;7593;49.006;8.372;2023-12-07T08:52:21;16.07;;;12.27;;
14994;SDS011;7593;49.006;8.372;2023-12-07T08:54:48;15.17;;;11.07;;
14994;SDS011;7593;49.006;8.372;2023-12-07T08:57:15;13.60;;;10.00;;
14994;SDS011;7593;49.006;8.372;2023-12-07T08:59:43;11.57;;;9.43;;
14994;SDS011;7593;49.006;8.372;2023-12-07T09:02:12;11.87;;;9.60;;
14994;SDS011;7593;49.006;8.372;2023-12-07T09:04:38;10.70;;;8.97;;
14994;SDS011;7593;49.006;8.372;2023-12-07T09:07:05;12.57;;;9.17;;
14994;SDS011;7593;49.006;8.372;2023-12-07T09:09:32;11.57;;;8.70;;
14994;SDS011;7593;49.006;8.372;2023-12-07T09:11:59;12.60;;;8.57;;
14994;SDS011;7593;49.006;8.372;2023-12-07T09:14:26;13.33;;;8.20;;
14994;SDS011;7593;49.006;8.372;2023-12-07T09:16:52;11.37;;;8.30;;
14994;SDS011;7593;49.006;8.372;2023-12-07T09:19:21;10.97;;;7.93;;
14994;SDS011;7593;49.006;8.372;2023-12-07T09:21:48;11.33;;;8.57;;
14994;SDS011;7593;49.006;8.372;2023-12-07T09:24:15;10.73;;;7.80;;
14994;SDS011;7593;49.006;8.372;2023-12-07T09:26:42;9.20;;;7.67;;
14994;SDS011;7593;49.006;8.372;2023-12-07T09:29:09;11.63;;;8.13;;
14994;SDS011;7593;49.006;8.372;2023-12-07T09:31:35;14.03;;;8.17;;
14994;SDS011;7593;49.006;8.372;2023-12-07T09:34:02;10.93;;;7.40;;
14994;SDS011;7593;49.006;8.372;2023-12-07T09:36:30;9.87;;;8.03;;
14994;SDS011;7593;49.006;8.372;2023-12-07T09:38:57;11.47;;;7.80;;
14994;SDS011;7593;49.006;8.372;2023-12-07T09:41:24;11.07;;;7.10;;
14994;SDS011;7593;49.006;8.372;2023-12-07T09:43:52;9.57;;;7.23;;
14994;SDS011;7593;49.006;8.372;2023-12-07T09:46:19;9.17;;;7.37;;
14994;SDS011;7593;49.006;8.372;2023-12-07T09:48:46;8.87;;;6.30;;
14994;SDS011;7593;49.006;8.372;2023-12-07T09:51:15;8.37;;;6.80;;
14994;SDS011;7593;49.006;8.372;2023-12-07T09:53:43;6.33;;;5.63;;
14994;SDS011;7593;49.006;8.372;2023-12-07T09:56:14;9.77;;;7.17;;
14994;SDS011;7593;49.006;8.372;2023-12-07T09:58:41;8.00;;;6.00;;
14994;SDS011;7593;49.006;8.372;2023-12-07T10:01:08;9.77;;;5.93;;
14994;SDS011;7593;49.006;8.372;2023-12-07T10:03:38;9.30;;;6.33;;
14994;SDS011;7593;49.006;8.372;2023-12-07T10:06:06;6.37;;;5.00;;
14994;SDS011;7593;49.006;8.372;2023-12-07T10:08:33;9.40;;;5.53;;
14994;SDS011;7593;49.006;8.372;2023-12-07T10:11:02;7.93;;;5.47;;
14994;SDS011;7593;49.006;8.372;2023-12-07T10:13:30;6.37;;;5.33;;
14994;SDS011;7593;49.006;8.372;2023-12-07T10:16:09;6.77;;;4.90;;
14994;SDS011;7593;49.006;8.372;2023-12-07T10:18:37;6.77;;;5.03;;
14994;SDS011;7593;49.006;8.372;2023-12-07T10:21:06;7.32;;;4.70;;
14994;SDS011;7593;49.006;8.372;2023-12-07T10:23:34;6.63;;;4.80;;
14994;SDS011;7593;49.006;8.372;2023-12-07T10:26:02;9.63;;;5.10;;
14994;SDS011;7593;49.006;8.372;2023-12-07T10:28:31;15.63;;;5.22;;
14994;SDS011;7593;49.006;8.372;2023-12-07T10:31:00;8.77;;;4.60;;
14994;SDS011;7593;49.006;8.372;2023-12-07T10:33:27;7.40;;;5.32;;
14994;SDS011;7593;49.006;8.372;2023-12-07T10:35:54;6.97;;;4.78;;
14994;SDS011;7593;49.006;8.372;2023-12-07T10:38:21;6.28;;;4.70;;
14994;SDS011;7593;49.006;8.372;2023-12-07T10:40:48;5.40;;;4.20;;
14994;SDS011;7593;49.006;8.372;2023-12-07T10:43:18;5.90;;;4.53;;
14994;SDS011;7593;49.006;8.372;2023-12-07T10:45:46;5.88;;;4.18;;
14994;SDS011;7593;49.006;8.372;2023-12-07T10:48:14;8.10;;;5.20;;
14994;SDS011;7593;49.006;8.372;2023-12-07T10:50:41;9.57;;;4.60;;
14994;SDS011;7593;49.006;8.372;2023-12-07T10:53:12;5.63;;;4.40;;
14994;SDS011;7593;49.006;8.372;2023-12-07T10:55:45;7.20;;;4.50;;
14994;SDS011;7593;49.006;8.372;2023-12-07T10:58:17;7.13;;;4.72;;
14994;SDS011;7593;49.006;8.372;2023-12-07T11:00:46;6.40;;;4.75;;
14994;SDS011;7593;49.006;8.372;2023-12-07T11:03:14;8.18;;;4.50;;
14994;SDS011;7593;49.006;8.372;2023-12-07T11:05:42;6.68;;;4.13;;
14994;SDS011;7593;49.006;8.372;2023-12-07T11:08:11;4.88;;;4.30;;
14994;SDS011;7593;49.006;8.372;2023-12-07T11:10:43;16.48;;;5.22;;
14994;SDS011;7593;49.006;8.372;2023-12-07T11:13:20;7.00;;;4.30;;
14994;SDS011;7593;49.006;8.372;2023-12-07T11:15:50;13.13;;;4.78;;
14994;SDS011;7593;49.006;8.372;2023-12-07T11:18:18;4.45;;;3.90;;
14994;SDS011;7593;49.006;8.372;2023-12-07T11:20:45;13.32;;;4.72;;
14994;SDS011;7593;49.006;8.372;2023-12-07T11:23:15;7.80;;;4.15;;
14994;SDS011;7593;49.006;8.372;2023-12-07T11:25:43;4.20;;;3.33;;
14994;SDS011;7593;49.006;8.372;2023-12-07T11:28:11;9.88;;;3.95;;
14994;SDS011;7593;49.006;8.372;2023-12-07T11:30:44;3.95;;;3.55;;
14994;SDS011;7593;49.006;8.372;2023-12-07T11:33:12;4.50;;;3.43;;
14994;SDS011;7593;49.006;8.372;2023-12-07T11:38:36;10.00;;;4.00;;
14994;SDS011;7593;49.006;8.372;2023-12-07T11:41:03;3.92;;;3.42;;
14994;SDS011;7593;49.006;8.372;2023-12-07T11:43:36;5.45;;;3.50;;
14994;SDS011;7593;49.006;8.372;2023-12-07T11:46:10;4.40;;;3.73;;
14994;SDS011;7593;49.006;8.372;2023-12-07T11:48:37;4.30;;;2.80;;
14994;SDS011;7593;49.006;8.372;2023-12-07T11:51:05;6.47;;;3.15;;
14994;SDS011;7593;49.006;8.372;2023-12-07T11:53:34;3.20;;;2.50;;
14994;SDS011;7593;49.006;8.372;2023-12-07T11:56:01;4.30;;;2.22;;
14994;SDS011;7593;49.006;8.372;2023-12-07T11:58:31;2.50;;;2.28;;
14994;SDS011;7593;49.006;8.372;2023-12-07T12:00:58;2.90;;;2.33;;
14994;SDS011;7593;49.006;8.372;2023-12-07T12:03:27;3.45;;;2.30;;
14994;SDS011;7593;49.006;8.372;2023-12-07T12:05:56;3.55;;;2.67;;
14994;SDS011;7593;49.006;8.372;2023-12-07T12:08:23;3.15;;;2.40;;
14994;SDS011;7593;49.006;8.372;2023-12-07T12:10:50;5.40;;;2.65;;
14994;SDS011;7593;49.006;8.372;2023-12-07T12:13:18;4.05;;;2.63;;
14994;SDS011;7593;49.006;8.372;2023-12-07T12:15:46;3.28;;;2.60;;
14994;SDS011;7593;49.006;8.372;2023-12-07T12:18:12;4.45;;;3.03;;
14994;SDS011;7593;49.006;8.372;2023-12-07T12:20:43;3.28;;;2.42;;
14994;SDS011;7593;49.006;8.372;2023-12-07T12:23:11;3.88;;;2.10;;
14994;SDS011;7593;49.006;8.372;2023-12-07T12:25:37;5.82;;;2.20;;
14994;SDS011;7593;49.006;8.372;2023-12-07T12:28:05;2.42;;;2.05;;
14994;SDS011;7593;49.006;8.372;2023-12-07T12:30:32;5.57;;;2.60;;
14994;SDS011;7593;49.006;8.372;2023-12-07T12:33:00;3.47;;;2.10;;
14994;SDS011;7593;49.006;8.372;2023-12-07T12:35:26;3.78;;;2.05;;
14994;SDS011;7593;49.006;8.372;2023-12-07T12:37:55;3.38;;;1.92;;
14994;SDS011;7593;49.006;8.372;2023-12-07T12:40:22;3.17;;;2.10;;
14994;SDS011;7593;49.006;8.372;2023-12-07T12:42:50;6.88;;;2.47;;
14994;SDS011;7593;49.006;8.372;2023-12-07T12:45:18;2.13;;;1.90;;
14994;SDS011;7593;49.006;8.372;2023-12-07T12:47:46;2.40;;;1.63;;
14994;SDS011;7593;49.006;8.372;2023-12-07T12:53:02;3.55;;;2.08;;
14994;SDS011;7593;49.006;8.372;2023-12-07T12:55:30;1.85;;;1.65;;
14994;SDS011;7593;49.006;8.372;2023-12-07T12:57:57;2.40;;;1.90;;
14994;SDS011;7593;49.006;8.372;2023-12-07T13:00:25;3.70;;;2.15;;
14994;SDS011;7593;49.006;8.372;2023-12-07T13:02:52;3.08;;;1.70;;
14994;SDS011;7593;49.006;8.372;2023-12-07T13:05:18;5.68;;;2.30;;
14994;SDS011;7593;49.006;8.372;2023-12-07T13:07:45;3.05;;;2.28;;
14994;SDS011;7593;49.006;8.372;2023-12-07T13:10:15;3.35;;;1.90;;
14994;SDS011;7593;49.006;8.372;2023-12-07T13:12:41;1.60;;;1.42;;
14994;SDS011;7593;49.006;8.372;2023-12-07T13:15:09;2.22;;;1.90;;
14994;SDS011;7593;49.006;8.372;2023-12-07T13:17:37;4.28;;;1.77;;
14994;SDS011;7593;49.006;8.372;2023-12-07T13:20:04;2.30;;;1.90;;
14994;SDS011;7593;49.006;8.372;2023-12-07T13:22:33;2.25;;;1.90;;
14994;SDS011;7593;49.006;8.372;2023-12-07T13:25:00;3.50;;;2.05;;
14994;SDS011;7593;49.006;8.372;2023-12-07T13:27:29;2.05;;;1.85;;
14994;SDS011;7593;49.006;8.372;2023-12-07T13:29:55;5.22;;;1.85;;
14994;SDS011;7593;49.006;8.372;2023-12-07T13:32:22;2.15;;;1.75;;
14994;SDS011;7593;49.006;8.372;2023-12-07T13:34:49;3.92;;;2.33;;
14994;SDS011;7593;49.006;8.372;2023-12-07T13:37:17;2.72;;;2.33;;
14994;SDS011;7593;49.006;8.372;2023-12-07T13:39:45;2.28;;;1.90;;
14994;SDS011;7593;49.006;8.372;2023-12-07T13:42:17;2.90;;;2.10;;
14994;SDS011;7593;49.006;8.372;2023-12-07T13:44:46;2.40;;;2.10;;
14994;SDS011;7593;49.006;8.372;2023-12-07T13:47:12;2.80;;;2.10;;
14994;SDS011;7593;49.006;8.372;2023-12-07T13:49:43;2.28;;;1.83;;
14994;SDS011;7593;49.006;8.372;2023-12-07T13:52:09;2.70;;;2.28;;
14994;SDS011;7593;49.006;8.372;2023-12-07T13:54:36;2.28;;;2.08;;
14994;SDS011;7593;49.006;8.372;2023-12-07T13:57:04;2.55;;;1.98;;
14994;SDS011;7593;49.006;8.372;2023-12-07T13:59:32;2.67;;;2.22;;
14994;SDS011;7593;49.006;8.372;2023-12-07T14:02:00;2.60;;;2.17;;
14994;SDS011;7593;49.006;8.372;2023-12-07T14:04:27;2.80;;;2.03;;
14994;SDS011;7593;49.006;8.372;2023-12-07T14:06:54;4.20;;;2.28;;
14994;SDS011;7593;49.006;8.372;2023-12-07T14:09:32;6.55;;;2.25;;
14994;SDS011;7593;49.006;8.372;2023-12-07T14:11:59;3.17;;;2.10;;
14994;SDS011;7593;49.006;8.372;2023-12-07T14:14:25;2.75;;;1.80;;
14994;SDS011;7593;49.006;8.372;2023-12-07T14:16:52;3.08;;;2.20;;
14994;SDS011;7593;49.006;8.372;2023-12-07T14:19:20;2.33;;;2.10;;
14994;SDS011;7593;49.006;8.372;2023-12-07T14:21:47;3.47;;;2.40;;
14994;SDS011;7593;49.006;8.372;2023-12-07T14:24:14;3.00;;;2.13;;
14994;SDS011;7593;49.006;8.372;2023-12-07T14:26:41;3.20;;;2.90;;
14994;SDS011;7593;49.006;8.372;2023-12-07T14:29:08;6.40;;;4.37;;
14994;SDS011;7593;49.006;8.372;2023-12-07T14:31:39;9.20;;;6.63;;
14994;SDS011;7593;49.006;8.372;2023-12-07T14:34:06;11.77;;;9.13;;
14994;SDS011;7593;49.006;8.372;2023-12-07T14:36:34;13.87;;;10.67;;
14994;SDS011;7593;49.006;8.372;2023-12-07T14:39:01;13.53;;;11.27;;
14994;SDS011;7593;49.006;8.372;2023-12-07T14:41:31;16.50;;;11.93;;
14994;SDS011;7593;49.006;8.372;2023-12-07T14:43:57;15.10;;;12.63;;
14994;SDS011;7593;49.006;8.372;2023-12-07T14:46:24;15.93;;;12.27;;
14994;SDS011;7593;49.006;8.372;2023-12-07T14:48:51;16.37;;;13.50;;
14994;SDS011;7593;49.006;8.372;2023-12-07T14:51:18;17.20;;;13.73;;
14994;SDS011;7593;49.006;8.372;2023-12-07T14:53:47;15.80;;;13.20;;